sensor_id;sensor_type;location;lat;lon;timestamp;P1;durP1;ratioP1;P2;durP2;ratioP2
34657;SDS011;20865;43.312;27.152;2022-11-15T00:01:15;18.57;;;6.70;;
34657;SDS011;20865;43.312;27.152;2022-11-15T00:03:44;18.12;;;7.08;;
34657;SDS011;20865;43.312;27.152;2022-11-15T00:06:11;18.10;;;6.97;;
34657;SDS011;20865;43.312;27.152;2022-11-15T00:08:39;18.67;;;7.08;;
34657;SDS011;20865;43.312;27.152;2022-11-15T00:11:08;16.40;;;6.92;;
34657;SDS011;20865;43.312;27.152;2022-11-15T00:13:37;17.42;;;6.67;;
34657;SDS011;20865;43.312;27.152;2022-11-15T00:16:05;18.87;;;7.37;;
34657;SDS011;20865;43.312;27.152;2022-11-15T00:18:33;18.07;;;7.08;;
34657;SDS011;20865;43.312;27.152;2022-11-15T00:21:04;16.15;;;7.15;;
34657;SDS011;20865;43.312;27.152;2022-11-15T00:23:33;15.38;;;6.33;;
34657;SDS011;20865;43.312;27.152;2022-11-15T00:26:01;12.00;;;5.65;;
34657;SDS011;20865;43.312;27.152;2022-11-15T00:28:29;13.22;;;6.70;;
34657;SDS011;20865;43.312;27.152;2022-11-15T00:31:05;16.95;;;7.12;;
34657;SDS011;20865;43.312;27.152;2022-11-15T00:33:29;15.43;;;6.62;;
34657;SDS011;20865;43.312;27.152;2022-11-15T00:36:06;17.07;;;6.45;;
34657;SDS011;20865;43.312;27.152;2022-11-15T00:38:33;17.57;;;7.03;;
34657;SDS011;20865;43.312;27.152;2022-11-15T00:41:03;14.85;;;6.80;;
34657;SDS011;20865;43.312;27.152;2022-11-15T00:43:31;15.58;;;6.08;;
34657;SDS011;20865;43.312;27.152;2022-11-15T00:46:00;16.02;;;6.42;;
34657;SDS011;20865;43.312;27.152;2022-11-15T00:48:28;13.83;;;6.40;;
34657;SDS011;20865;43.312;27.152;2022-11-15T00:50:57;18.02;;;6.65;;
34657;SDS011;20865;43.312;27.152;2022-11-15T00:53:24;14.40;;;6.00;;
34657;SDS011;20865;43.312;27.152;2022-11-15T00:55:52;17.12;;;6.97;;
34657;SDS011;20865;43.312;27.152;2022-11-15T00:58:20;12.40;;;5.42;;
34657;SDS011;20865;43.312;27.152;2022-11-15T01:00:47;13.20;;;5.60;;
34657;SDS011;20865;43.312;27.152;2022-11-15T01:03:15;18.87;;;6.72;;
34657;SDS011;20865;43.312;27.152;2022-11-15T01:05:42;13.78;;;5.80;;
34657;SDS011;20865;43.312;27.152;2022-11-15T01:08:13;13.90;;;6.05;;
34657;SDS011;20865;43.312;27.152;2022-11-15T01:10:42;14.60;;;6.60;;
34657;SDS011;20865;43.312;27.152;2022-11-15T01:13:10;11.18;;;5.60;;
34657;SDS011;20865;43.312;27.152;2022-11-15T01:15:40;14.90;;;5.72;;
34657;SDS011;20865;43.312;27.152;2022-11-15T01:18:09;19.00;;;5.87;;
34657;SDS011;20865;43.312;27.152;2022-11-15T01:20:43;16.17;;;6.92;;
34657;SDS011;20865;43.312;27.152;2022-11-15T01:23:10;18.25;;;6.80;;
34657;SDS011;20865;43.312;27.152;2022-11-15T01:25:38;14.35;;;6.60;;
34657;SDS011;20865;43.312;27.152;2022-11-15T01:28:05;20.20;;;6.00;;
34657;SDS011;20865;43.312;27.152;2022-11-15T01:30:33;15.60;;;6.65;;
34657;SDS011;20865;43.312;27.152;2022-11-15T01:33:02;21.07;;;7.50;;
34657;SDS011;20865;43.312;27.152;2022-11-15T01:35:29;16.77;;;7.28;;
34657;SDS011;20865;43.312;27.152;2022-11-15T01:37:57;16.07;;;6.53;;
34657;SDS011;20865;43.312;27.152;2022-11-15T01:40:25;11.95;;;6.10;;
34657;SDS011;20865;43.312;27.152;2022-11-15T01:42:52;13.78;;;6.47;;
34657;SDS011;20865;43.312;27.152;2022-11-15T01:45:20;14.45;;;5.78;;
34657;SDS011;20865;43.312;27.152;2022-11-15T01:47:53;13.10;;;5.83;;
34657;SDS011;20865;43.312;27.152;2022-11-15T01:50:19;13.48;;;5.95;;
34657;SDS011;20865;43.312;27.152;2022-11-15T01:52:48;16.65;;;6.45;;
34657;SDS011;20865;43.312;27.152;2022-11-15T01:55:25;15.13;;;5.83;;
34657;SDS011;20865;43.312;27.152;2022-11-15T01:57:51;13.90;;;5.90;;
34657;SDS011;20865;43.312;27.152;2022-11-15T02:00:20;14.70;;;6.10;;
34657;SDS011;20865;43.312;27.152;2022-11-15T02:02:48;14.90;;;5.92;;
34657;SDS011;20865;43.312;27.152;2022-11-15T02:05:15;12.18;;;5.47;;
34657;SDS011;20865;43.312;27.152;2022-11-15T02:07:43;13.03;;;5.72;;
34657;SDS011;20865;43.312;27.152;2022-11-15T02:10:16;19.42;;;5.83;;
34657;SDS011;20865;43.312;27.152;2022-11-15T02:12:42;13.50;;;5.12;;
34657;SDS011;20865;43.312;27.152;2022-11-15T02:15:11;15.85;;;6.40;;
34657;SDS011;20865;43.312;27.152;2022-11-15T02:17:52;12.43;;;5.47;;
34657;SDS011;20865;43.312;27.152;2022-11-15T02:28:49;15.48;;;6.45;;
34657;SDS011;20865;43.312;27.152;2022-11-15T02:37:00;12.05;;;5.75;;
34657;SDS011;20865;43.312;27.152;2022-11-15T02:39:36;15.15;;;6.37;;
34657;SDS011;20865;43.312;27.152;2022-11-15T02:42:25;21.42;;;6.08;;
34657;SDS011;20865;43.312;27.152;2022-11-15T02:45:17;18.52;;;6.10;;
34657;SDS011;20865;43.312;27.152;2022-11-15T02:47:46;15.63;;;6.03;;
34657;SDS011;20865;43.312;27.152;2022-11-15T02:50:17;13.78;;;5.17;;
34657;SDS011;20865;43.312;27.152;2022-11-15T02:52:50;12.65;;;5.33;;
34657;SDS011;20865;43.312;27.152;2022-11-15T02:55:31;16.05;;;6.22;;
34657;SDS011;20865;43.312;27.152;2022-11-15T03:00:40;16.95;;;6.17;;
34657;SDS011;20865;43.312;27.152;2022-11-15T03:06:05;16.50;;;6.83;;
34657;SDS011;20865;43.312;27.152;2022-11-15T03:11:17;15.40;;;7.03;;
34657;SDS011;20865;43.312;27.152;2022-11-15T03:13:53;15.18;;;5.62;;
34657;SDS011;20865;43.312;27.152;2022-11-15T03:19:07;16.02;;;6.03;;
34657;SDS011;20865;43.312;27.152;2022-11-15T03:21:39;13.50;;;5.75;;
34657;SDS011;20865;43.312;27.152;2022-11-15T03:24:07;17.20;;;6.83;;
34657;SDS011;20865;43.312;27.152;2022-11-15T03:26:38;13.13;;;5.70;;
34657;SDS011;20865;43.312;27.152;2022-11-15T03:29:13;15.88;;;6.42;;
34657;SDS011;20865;43.312;27.152;2022-11-15T03:31:39;12.40;;;5.78;;
34657;SDS011;20865;43.312;27.152;2022-11-15T03:34:38;18.30;;;6.67;;
34657;SDS011;20865;43.312;27.152;2022-11-15T03:36:53;14.40;;;6.28;;
34657;SDS011;20865;43.312;27.152;2022-11-15T03:39:21;13.40;;;6.35;;
34657;SDS011;20865;43.312;27.152;2022-11-15T03:41:56;14.73;;;6.35;;
34657;SDS011;20865;43.312;27.152;2022-11-15T03:44:32;15.48;;;6.37;;
34657;SDS011;20865;43.312;27.152;2022-11-15T03:47:25;14.98;;;6.50;;
34657;SDS011;20865;43.312;27.152;2022-11-15T03:49:51;20.02;;;7.00;;
34657;SDS011;20865;43.312;27.152;2022-11-15T03:52:20;14.60;;;5.70;;
34657;SDS011;20865;43.312;27.152;2022-11-15T03:54:49;17.42;;;7.22;;
34657;SDS011;20865;43.312;27.152;2022-11-15T03:57:20;17.23;;;6.05;;
34657;SDS011;20865;43.312;27.152;2022-11-15T03:59:48;12.07;;;5.42;;
34657;SDS011;20865;43.312;27.152;2022-11-15T04:02:16;19.17;;;6.67;;
34657;SDS011;20865;43.312;27.152;2022-11-15T04:04:43;14.95;;;6.03;;
34657;SDS011;20865;43.312;27.152;2022-11-15T04:07:11;18.92;;;6.87;;
34657;SDS011;20865;43.312;27.152;2022-11-15T04:09:38;13.93;;;6.58;;
34657;SDS011;20865;43.312;27.152;2022-11-15T04:12:24;16.67;;;6.47;;
34657;SDS011;20865;43.312;27.152;2022-11-15T04:15:00;15.90;;;6.00;;
34657;SDS011;20865;43.312;27.152;2022-11-15T04:17:39;15.83;;;5.92;;
34657;SDS011;20865;43.312;27.152;2022-11-15T04:20:15;15.78;;;6.47;;
34657;SDS011;20865;43.312;27.152;2022-11-15T04:23:01;17.55;;;6.62;;
34657;SDS011;20865;43.312;27.152;2022-11-15T04:25:49;16.60;;;6.67;;
34657;SDS011;20865;43.312;27.152;2022-11-15T04:28:18;12.03;;;5.58;;
34657;SDS011;20865;43.312;27.152;2022-11-15T04:30:46;15.98;;;6.60;;
34657;SDS011;20865;43.312;27.152;2022-11-15T04:33:14;13.83;;;6.30;;
34657;SDS011;20865;43.312;27.152;2022-11-15T04:35:42;19.50;;;6.20;;
34657;SDS011;20865;43.312;27.152;2022-11-15T04:38:11;13.75;;;6.17;;
34657;SDS011;20865;43.312;27.152;2022-11-15T04:40:38;15.75;;;6.90;;
34657;SDS011;20865;43.312;27.152;2022-11-15T04:43:06;16.85;;;6.95;;
34657;SDS011;20865;43.312;27.152;2022-11-15T04:45:34;17.42;;;6.28;;
34657;SDS011;20865;43.312;27.152;2022-11-15T04:48:01;16.17;;;7.08;;
34657;SDS011;20865;43.312;27.152;2022-11-15T04:50:29;17.48;;;7.08;;
34657;SDS011;20865;43.312;27.152;2022-11-15T04:52:56;16.45;;;6.65;;
34657;SDS011;20865;43.312;27.152;2022-11-15T04:55:25;16.15;;;6.83;;
34657;SDS011;20865;43.312;27.152;2022-11-15T04:57:59;19.92;;;6.83;;
34657;SDS011;20865;43.312;27.152;2022-11-15T05:00:29;17.73;;;6.87;;
34657;SDS011;20865;43.312;27.152;2022-11-15T05:02:57;17.77;;;7.20;;
34657;SDS011;20865;43.312;27.152;2022-11-15T05:05:42;16.15;;;6.55;;
34657;SDS011;20865;43.312;27.152;2022-11-15T05:08:10;16.35;;;6.53;;
34657;SDS011;20865;43.312;27.152;2022-11-15T05:10:38;21.68;;;7.53;;
34657;SDS011;20865;43.312;27.152;2022-11-15T05:13:05;17.75;;;7.33;;
34657;SDS011;20865;43.312;27.152;2022-11-15T05:15:33;15.93;;;6.42;;
34657;SDS011;20865;43.312;27.152;2022-11-15T05:18:00;18.27;;;7.25;;
34657;SDS011;20865;43.312;27.152;2022-11-15T05:20:28;16.65;;;6.97;;
34657;SDS011;20865;43.312;27.152;2022-11-15T05:22:55;17.80;;;6.95;;
34657;SDS011;20865;43.312;27.152;2022-11-15T05:25:23;17.10;;;6.67;;
34657;SDS011;20865;43.312;27.152;2022-11-15T05:27:51;18.35;;;6.25;;
34657;SDS011;20865;43.312;27.152;2022-11-15T05:30:18;19.98;;;7.45;;
34657;SDS011;20865;43.312;27.152;2022-11-15T05:32:46;14.85;;;6.75;;
34657;SDS011;20865;43.312;27.152;2022-11-15T05:35:30;17.57;;;6.70;;
34657;SDS011;20865;43.312;27.152;2022-11-15T05:38:09;16.55;;;6.37;;
34657;SDS011;20865;43.312;27.152;2022-11-15T05:40:37;15.70;;;6.72;;
34657;SDS011;20865;43.312;27.152;2022-11-15T05:43:04;15.88;;;6.97;;
34657;SDS011;20865;43.312;27.152;2022-11-15T05:45:32;18.05;;;7.75;;
34657;SDS011;20865;43.312;27.152;2022-11-15T05:48:03;26.17;;;7.47;;
34657;SDS011;20865;43.312;27.152;2022-11-15T05:50:32;14.58;;;7.00;;
34657;SDS011;20865;43.312;27.152;2022-11-15T05:53:00;16.60;;;7.00;;
34657;SDS011;20865;43.312;27.152;2022-11-15T05:55:29;17.57;;;7.35;;
34657;SDS011;20865;43.312;27.152;2022-11-15T05:57:57;17.50;;;6.80;;
34657;SDS011;20865;43.312;27.152;2022-11-15T06:00:24;15.85;;;6.72;;
34657;SDS011;20865;43.312;27.152;2022-11-15T06:02:52;20.95;;;5.83;;
34657;SDS011;20865;43.312;27.152;2022-11-15T06:05:19;15.45;;;6.45;;
34657;SDS011;20865;43.312;27.152;2022-11-15T06:07:47;18.95;;;7.10;;
34657;SDS011;20865;43.312;27.152;2022-11-15T06:10:14;16.55;;;6.22;;
34657;SDS011;20865;43.312;27.152;2022-11-15T06:12:42;17.77;;;6.78;;
34657;SDS011;20865;43.312;27.152;2022-11-15T06:15:10;22.95;;;7.30;;
34657;SDS011;20865;43.312;27.152;2022-11-15T06:17:38;15.18;;;5.97;;
34657;SDS011;20865;43.312;27.152;2022-11-15T06:20:05;18.25;;;6.35;;
34657;SDS011;20865;43.312;27.152;2022-11-15T06:22:33;16.95;;;5.87;;
34657;SDS011;20865;43.312;27.152;2022-11-15T06:25:01;16.93;;;6.42;;
34657;SDS011;20865;43.312;27.152;2022-11-15T06:27:28;18.02;;;7.75;;
34657;SDS011;20865;43.312;27.152;2022-11-15T06:29:56;18.52;;;6.58;;
34657;SDS011;20865;43.312;27.152;2022-11-15T06:32:24;13.90;;;6.00;;
34657;SDS011;20865;43.312;27.152;2022-11-15T06:34:51;18.07;;;6.78;;
34657;SDS011;20865;43.312;27.152;2022-11-15T06:37:19;14.55;;;6.00;;
34657;SDS011;20865;43.312;27.152;2022-11-15T06:39:46;17.87;;;7.05;;
34657;SDS011;20865;43.312;27.152;2022-11-15T06:42:14;17.10;;;6.58;;
34657;SDS011;20865;43.312;27.152;2022-11-15T06:44:41;14.93;;;6.10;;
34657;SDS011;20865;43.312;27.152;2022-11-15T06:47:09;15.68;;;7.17;;
34657;SDS011;20865;43.312;27.152;2022-11-15T06:49:36;17.52;;;5.83;;
34657;SDS011;20865;43.312;27.152;2022-11-15T06:52:04;16.77;;;6.60;;
34657;SDS011;20865;43.312;27.152;2022-11-15T06:54:32;14.95;;;6.33;;
34657;SDS011;20865;43.312;27.152;2022-11-15T06:56:59;19.77;;;6.42;;
34657;SDS011;20865;43.312;27.152;2022-11-15T06:59:27;13.20;;;4.53;;
34657;SDS011;20865;43.312;27.152;2022-11-15T07:01:54;17.12;;;5.60;;
34657;SDS011;20865;43.312;27.152;2022-11-15T07:04:22;19.15;;;6.85;;
34657;SDS011;20865;43.312;27.152;2022-11-15T07:06:49;17.90;;;6.85;;
34657;SDS011;20865;43.312;27.152;2022-11-15T07:09:17;18.27;;;6.80;;
34657;SDS011;20865;43.312;27.152;2022-11-15T07:11:45;20.08;;;7.22;;
34657;SDS011;20865;43.312;27.152;2022-11-15T07:14:12;20.90;;;7.65;;
34657;SDS011;20865;43.312;27.152;2022-11-15T07:16:40;18.35;;;6.72;;
34657;SDS011;20865;43.312;27.152;2022-11-15T07:19:08;19.00;;;6.30;;
34657;SDS011;20865;43.312;27.152;2022-11-15T07:21:36;17.17;;;6.85;;
34657;SDS011;20865;43.312;27.152;2022-11-15T07:24:04;17.25;;;6.70;;
34657;SDS011;20865;43.312;27.152;2022-11-15T07:26:32;17.00;;;6.45;;
34657;SDS011;20865;43.312;27.152;2022-11-15T07:28:59;20.17;;;6.45;;
34657;SDS011;20865;43.312;27.152;2022-11-15T07:31:27;18.00;;;7.03;;
34657;SDS011;20865;43.312;27.152;2022-11-15T07:33:55;20.75;;;6.95;;
34657;SDS011;20865;43.312;27.152;2022-11-15T07:36:22;22.32;;;7.10;;
34657;SDS011;20865;43.312;27.152;2022-11-15T07:38:50;17.12;;;6.70;;
34657;SDS011;20865;43.312;27.152;2022-11-15T07:41:17;17.17;;;7.30;;
34657;SDS011;20865;43.312;27.152;2022-11-15T07:43:45;30.37;;;12.95;;
34657;SDS011;20865;43.312;27.152;2022-11-15T07:46:13;19.17;;;8.38;;
34657;SDS011;20865;43.312;27.152;2022-11-15T07:48:40;17.75;;;6.95;;
34657;SDS011;20865;43.312;27.152;2022-11-15T07:51:10;25.02;;;9.18;;
34657;SDS011;20865;43.312;27.152;2022-11-15T07:53:41;19.95;;;8.58;;
34657;SDS011;20865;43.312;27.152;2022-11-15T07:56:10;19.35;;;8.00;;
34657;SDS011;20865;43.312;27.152;2022-11-15T07:58:38;21.48;;;7.08;;
34657;SDS011;20865;43.312;27.152;2022-11-15T08:01:06;93.60;;;39.92;;
34657;SDS011;20865;43.312;27.152;2022-11-15T08:03:35;133.87;;;50.88;;
34657;SDS011;20865;43.312;27.152;2022-11-15T08:06:03;42.25;;;20.23;;
34657;SDS011;20865;43.312;27.152;2022-11-15T08:08:31;21.77;;;9.08;;
34657;SDS011;20865;43.312;27.152;2022-11-15T08:10:59;22.37;;;7.30;;
34657;SDS011;20865;43.312;27.152;2022-11-15T08:13:26;22.40;;;7.80;;
34657;SDS011;20865;43.312;27.152;2022-11-15T08:16:02;20.05;;;7.15;;
34657;SDS011;20865;43.312;27.152;2022-11-15T08:18:26;24.20;;;8.80;;
34657;SDS011;20865;43.312;27.152;2022-11-15T08:20:57;27.48;;;8.13;;
34657;SDS011;20865;43.312;27.152;2022-11-15T08:23:26;36.68;;;19.82;;
34657;SDS011;20865;43.312;27.152;2022-11-15T08:26:01;25.77;;;12.00;;
34657;SDS011;20865;43.312;27.152;2022-11-15T08:28:31;31.95;;;14.75;;
34657;SDS011;20865;43.312;27.152;2022-11-15T08:30:59;18.12;;;7.50;;
34657;SDS011;20865;43.312;27.152;2022-11-15T08:33:27;24.30;;;7.83;;
34657;SDS011;20865;43.312;27.152;2022-11-15T08:35:58;20.27;;;8.30;;
34657;SDS011;20865;43.312;27.152;2022-11-15T08:38:27;25.02;;;9.38;;
34657;SDS011;20865;43.312;27.152;2022-11-15T08:40:59;19.02;;;7.10;;
34657;SDS011;20865;43.312;27.152;2022-11-15T08:43:29;22.27;;;7.50;;
34657;SDS011;20865;43.312;27.152;2022-11-15T08:45:56;17.02;;;7.65;;
34657;SDS011;20865;43.312;27.152;2022-11-15T08:48:24;18.20;;;6.72;;
34657;SDS011;20865;43.312;27.152;2022-11-15T08:50:55;17.57;;;6.70;;
34657;SDS011;20865;43.312;27.152;2022-11-15T08:53:23;20.90;;;8.33;;
34657;SDS011;20865;43.312;27.152;2022-11-15T08:55:50;21.40;;;7.10;;
34657;SDS011;20865;43.312;27.152;2022-11-15T08:58:18;19.57;;;7.12;;
34657;SDS011;20865;43.312;27.152;2022-11-15T09:00:45;17.17;;;6.72;;
34657;SDS011;20865;43.312;27.152;2022-11-15T09:03:13;19.85;;;6.53;;
34657;SDS011;20865;43.312;27.152;2022-11-15T09:05:41;15.25;;;6.35;;
34657;SDS011;20865;43.312;27.152;2022-11-15T09:08:08;15.53;;;5.87;;
34657;SDS011;20865;43.312;27.152;2022-11-15T09:10:38;14.68;;;6.45;;
34657;SDS011;20865;43.312;27.152;2022-11-15T09:13:05;19.15;;;6.83;;
34657;SDS011;20865;43.312;27.152;2022-11-15T09:15:33;18.45;;;7.85;;
34657;SDS011;20865;43.312;27.152;2022-11-15T09:18:00;15.50;;;6.65;;
34657;SDS011;20865;43.312;27.152;2022-11-15T09:20:28;16.27;;;6.25;;
34657;SDS011;20865;43.312;27.152;2022-11-15T09:22:58;17.48;;;6.55;;
34657;SDS011;20865;43.312;27.152;2022-11-15T09:25:28;17.07;;;7.10;;
34657;SDS011;20865;43.312;27.152;2022-11-15T09:27:57;17.25;;;6.08;;
34657;SDS011;20865;43.312;27.152;2022-11-15T09:30:24;13.95;;;6.05;;
34657;SDS011;20865;43.312;27.152;2022-11-15T09:32:52;17.60;;;6.62;;
34657;SDS011;20865;43.312;27.152;2022-11-15T09:35:19;16.27;;;5.42;;
34657;SDS011;20865;43.312;27.152;2022-11-15T09:37:47;18.82;;;6.60;;
34657;SDS011;20865;43.312;27.152;2022-11-15T09:40:15;15.80;;;6.62;;
34657;SDS011;20865;43.312;27.152;2022-11-15T09:43:04;16.67;;;6.47;;
34657;SDS011;20865;43.312;27.152;2022-11-15T09:54:01;15.13;;;5.90;;
34657;SDS011;20865;43.312;27.152;2022-11-15T09:56:30;16.77;;;6.45;;
34657;SDS011;20865;43.312;27.152;2022-11-15T09:59:01;16.02;;;6.10;;
34657;SDS011;20865;43.312;27.152;2022-11-15T10:01:56;18.45;;;6.22;;
34657;SDS011;20865;43.312;27.152;2022-11-15T10:04:30;16.82;;;6.80;;
34657;SDS011;20865;43.312;27.152;2022-11-15T10:07:02;16.90;;;6.50;;
34657;SDS011;20865;43.312;27.152;2022-11-15T10:09:34;19.77;;;7.12;;
34657;SDS011;20865;43.312;27.152;2022-11-15T10:12:02;17.42;;;6.62;;
34657;SDS011;20865;43.312;27.152;2022-11-15T10:14:30;16.35;;;5.47;;
34657;SDS011;20865;43.312;27.152;2022-11-15T10:17:14;18.25;;;6.30;;
34657;SDS011;20865;43.312;27.152;2022-11-15T10:22:51;15.98;;;6.45;;
34657;SDS011;20865;43.312;27.152;2022-11-15T10:25:24;16.48;;;6.70;;
34657;SDS011;20865;43.312;27.152;2022-11-15T10:28:22;20.65;;;8.60;;
34657;SDS011;20865;43.312;27.152;2022-11-15T10:30:51;17.15;;;7.50;;
34657;SDS011;20865;43.312;27.152;2022-11-15T10:33:36;13.40;;;6.05;;
34657;SDS011;20865;43.312;27.152;2022-11-15T10:41:23;15.20;;;5.35;;
34657;SDS011;20865;43.312;27.152;2022-11-15T10:44:12;16.25;;;6.80;;
34657;SDS011;20865;43.312;27.152;2022-11-15T10:49:28;15.45;;;5.87;;
34657;SDS011;20865;43.312;27.152;2022-11-15T10:52:00;18.15;;;6.20;;
34657;SDS011;20865;43.312;27.152;2022-11-15T10:57:13;14.45;;;6.35;;
34657;SDS011;20865;43.312;27.152;2022-11-15T10:59:47;12.13;;;5.80;;
34657;SDS011;20865;43.312;27.152;2022-11-15T11:02:32;12.70;;;5.78;;
34657;SDS011;20865;43.312;27.152;2022-11-15T11:05:02;12.40;;;4.65;;
34657;SDS011;20865;43.312;27.152;2022-11-15T11:07:33;17.15;;;6.33;;
34657;SDS011;20865;43.312;27.152;2022-11-15T11:10:17;22.95;;;10.20;;
34657;SDS011;20865;43.312;27.152;2022-11-15T11:12:41;18.35;;;7.70;;
34657;SDS011;20865;43.312;27.152;2022-11-15T11:15:10;35.60;;;14.63;;
34657;SDS011;20865;43.312;27.152;2022-11-15T11:17:51;22.15;;;8.98;;
34657;SDS011;20865;43.312;27.152;2022-11-15T11:31:27;20.08;;;6.47;;
34657;SDS011;20865;43.312;27.152;2022-11-15T11:34:13;15.63;;;6.67;;
34657;SDS011;20865;43.312;27.152;2022-11-15T11:36:54;16.40;;;6.45;;
34657;SDS011;20865;43.312;27.152;2022-11-15T11:45:01;22.95;;;9.93;;
34657;SDS011;20865;43.312;27.152;2022-11-15T11:47:35;24.50;;;8.88;;
34657;SDS011;20865;43.312;27.152;2022-11-15T11:49:59;14.05;;;6.72;;
34657;SDS011;20865;43.312;27.152;2022-11-15T11:52:31;27.45;;;11.80;;
34657;SDS011;20865;43.312;27.152;2022-11-15T12:00:21;11.75;;;4.80;;
34657;SDS011;20865;43.312;27.152;2022-11-15T12:03:07;11.08;;;4.78;;
34657;SDS011;20865;43.312;27.152;2022-11-15T12:05:43;15.48;;;6.25;;
34657;SDS011;20865;43.312;27.152;2022-11-15T12:13:51;9.88;;;4.40;;
34657;SDS011;20865;43.312;27.152;2022-11-15T12:16:27;12.58;;;4.30;;
34657;SDS011;20865;43.312;27.152;2022-11-15T12:18:58;11.40;;;4.92;;
34657;SDS011;20865;43.312;27.152;2022-11-15T12:24:13;9.65;;;4.60;;
34657;SDS011;20865;43.312;27.152;2022-11-15T12:26:50;14.98;;;7.12;;
34657;SDS011;20865;43.312;27.152;2022-11-15T12:29:39;11.88;;;4.97;;
34657;SDS011;20865;43.312;27.152;2022-11-15T12:32:25;6.15;;;3.52;;
34657;SDS011;20865;43.312;27.152;2022-11-15T12:34:55;10.35;;;4.47;;
34657;SDS011;20865;43.312;27.152;2022-11-15T12:37:33;15.30;;;7.00;;
34657;SDS011;20865;43.312;27.152;2022-11-15T12:42:41;7.87;;;3.55;;
34657;SDS011;20865;43.312;27.152;2022-11-15T12:45:24;9.08;;;4.12;;
34657;SDS011;20865;43.312;27.152;2022-11-15T12:50:55;7.30;;;3.50;;
34657;SDS011;20865;43.312;27.152;2022-11-15T12:56:37;8.55;;;3.92;;
34657;SDS011;20865;43.312;27.152;2022-11-15T13:01:57;8.60;;;3.85;;
34657;SDS011;20865;43.312;27.152;2022-11-15T13:06:58;16.07;;;6.65;;
34657;SDS011;20865;43.312;27.152;2022-11-15T13:12:09;20.05;;;7.70;;
34657;SDS011;20865;43.312;27.152;2022-11-15T13:14:41;11.45;;;5.17;;
34657;SDS011;20865;43.312;27.152;2022-11-15T13:17:16;11.83;;;4.40;;
34657;SDS011;20865;43.312;27.152;2022-11-15T13:19:41;9.40;;;3.70;;
34657;SDS011;20865;43.312;27.152;2022-11-15T13:22:09;8.05;;;4.20;;
34657;SDS011;20865;43.312;27.152;2022-11-15T13:24:55;10.93;;;4.37;;
34657;SDS011;20865;43.312;27.152;2022-11-15T13:27:23;9.35;;;3.95;;
34657;SDS011;20865;43.312;27.152;2022-11-15T13:29:52;8.10;;;4.03;;
34657;SDS011;20865;43.312;27.152;2022-11-15T13:32:20;13.00;;;4.30;;
34657;SDS011;20865;43.312;27.152;2022-11-15T13:34:49;12.95;;;4.15;;
34657;SDS011;20865;43.312;27.152;2022-11-15T13:39:52;8.60;;;4.22;;
34657;SDS011;20865;43.312;27.152;2022-11-15T13:42:20;9.23;;;4.05;;
34657;SDS011;20865;43.312;27.152;2022-11-15T13:44:56;10.08;;;4.47;;
34657;SDS011;20865;43.312;27.152;2022-11-15T13:47:26;9.13;;;3.67;;
34657;SDS011;20865;43.312;27.152;2022-11-15T13:49:58;6.10;;;3.45;;
34657;SDS011;20865;43.312;27.152;2022-11-15T13:52:35;10.30;;;4.47;;
34657;SDS011;20865;43.312;27.152;2022-11-15T13:55:10;7.42;;;3.30;;
34657;SDS011;20865;43.312;27.152;2022-11-15T13:57:47;9.38;;;3.70;;
34657;SDS011;20865;43.312;27.152;2022-11-15T14:00:26;8.58;;;4.55;;
34657;SDS011;20865;43.312;27.152;2022-11-15T14:05:41;9.38;;;3.58;;
34657;SDS011;20865;43.312;27.152;2022-11-15T14:08:21;7.75;;;3.92;;
34657;SDS011;20865;43.312;27.152;2022-11-15T14:10:43;6.95;;;3.52;;
34657;SDS011;20865;43.312;27.152;2022-11-15T14:13:28;5.62;;;3.45;;
34657;SDS011;20865;43.312;27.152;2022-11-15T14:16:12;10.98;;;4.35;;
34657;SDS011;20865;43.312;27.152;2022-11-15T14:21:16;7.50;;;3.15;;
34657;SDS011;20865;43.312;27.152;2022-11-15T14:23:45;8.30;;;3.22;;
34657;SDS011;20865;43.312;27.152;2022-11-15T14:26:30;7.03;;;3.35;;
34657;SDS011;20865;43.312;27.152;2022-11-15T14:31:53;9.08;;;3.65;;
34657;SDS011;20865;43.312;27.152;2022-11-15T14:34:22;8.23;;;3.75;;
34657;SDS011;20865;43.312;27.152;2022-11-15T14:36:50;8.45;;;3.25;;
34657;SDS011;20865;43.312;27.152;2022-11-15T14:39:17;6.87;;;3.05;;
34657;SDS011;20865;43.312;27.152;2022-11-15T14:41:45;9.63;;;3.67;;
34657;SDS011;20865;43.312;27.152;2022-11-15T14:44:12;6.92;;;3.70;;
34657;SDS011;20865;43.312;27.152;2022-11-15T14:46:42;7.78;;;3.47;;
34657;SDS011;20865;43.312;27.152;2022-11-15T14:49:09;9.53;;;2.95;;
34657;SDS011;20865;43.312;27.152;2022-11-15T14:51:38;9.33;;;3.50;;
34657;SDS011;20865;43.312;27.152;2022-11-15T14:54:07;6.00;;;3.00;;
34657;SDS011;20865;43.312;27.152;2022-11-15T14:56:36;8.13;;;3.25;;
34657;SDS011;20865;43.312;27.152;2022-11-15T14:59:04;6.08;;;2.85;;
34657;SDS011;20865;43.312;27.152;2022-11-15T15:01:31;8.08;;;3.50;;
34657;SDS011;20865;43.312;27.152;2022-11-15T15:03:59;10.58;;;3.45;;
34657;SDS011;20865;43.312;27.152;2022-11-15T15:06:26;6.70;;;3.08;;
34657;SDS011;20865;43.312;27.152;2022-11-15T15:08:56;9.73;;;3.80;;
34657;SDS011;20865;43.312;27.152;2022-11-15T15:11:24;7.72;;;3.35;;
34657;SDS011;20865;43.312;27.152;2022-11-15T15:13:54;7.40;;;3.60;;
34657;SDS011;20865;43.312;27.152;2022-11-15T15:16:24;6.25;;;3.08;;
34657;SDS011;20865;43.312;27.152;2022-11-15T15:18:51;5.42;;;3.02;;
34657;SDS011;20865;43.312;27.152;2022-11-15T15:21:23;6.53;;;3.17;;
34657;SDS011;20865;43.312;27.152;2022-11-15T15:23:53;5.55;;;2.65;;
34657;SDS011;20865;43.312;27.152;2022-11-15T15:26:21;10.45;;;2.85;;
34657;SDS011;20865;43.312;27.152;2022-11-15T15:28:49;7.22;;;2.90;;
34657;SDS011;20865;43.312;27.152;2022-11-15T15:31:17;11.08;;;3.22;;
34657;SDS011;20865;43.312;27.152;2022-11-15T15:33:45;6.30;;;2.70;;
34657;SDS011;20865;43.312;27.152;2022-11-15T15:36:13;6.12;;;2.80;;
34657;SDS011;20865;43.312;27.152;2022-11-15T15:38:42;7.08;;;3.30;;
34657;SDS011;20865;43.312;27.152;2022-11-15T15:41:12;6.83;;;3.15;;
34657;SDS011;20865;43.312;27.152;2022-11-15T15:43:40;8.33;;;3.20;;
34657;SDS011;20865;43.312;27.152;2022-11-15T15:46:09;8.83;;;3.75;;
34657;SDS011;20865;43.312;27.152;2022-11-15T15:48:38;7.55;;;3.10;;
34657;SDS011;20865;43.312;27.152;2022-11-15T15:51:06;6.47;;;3.30;;
34657;SDS011;20865;43.312;27.152;2022-11-15T15:53:34;7.97;;;3.33;;
34657;SDS011;20865;43.312;27.152;2022-11-15T15:56:01;5.80;;;2.52;;
34657;SDS011;20865;43.312;27.152;2022-11-15T15:58:29;6.28;;;3.12;;
34657;SDS011;20865;43.312;27.152;2022-11-15T16:00:57;6.30;;;3.22;;
34657;SDS011;20865;43.312;27.152;2022-11-15T16:03:26;30.85;;;14.35;;
34657;SDS011;20865;43.312;27.152;2022-11-15T16:05:54;12.37;;;5.80;;
34657;SDS011;20865;43.312;27.152;2022-11-15T16:08:23;9.13;;;4.35;;
34657;SDS011;20865;43.312;27.152;2022-11-15T16:10:57;4.70;;;2.52;;
34657;SDS011;20865;43.312;27.152;2022-11-15T16:13:24;8.53;;;2.87;;
34657;SDS011;20865;43.312;27.152;2022-11-15T16:15:52;6.65;;;2.75;;
34657;SDS011;20865;43.312;27.152;2022-11-15T16:18:21;8.50;;;3.37;;
34657;SDS011;20865;43.312;27.152;2022-11-15T16:20:50;5.28;;;2.87;;
34657;SDS011;20865;43.312;27.152;2022-11-15T16:23:19;5.92;;;2.60;;
34657;SDS011;20865;43.312;27.152;2022-11-15T16:25:54;4.70;;;2.95;;
34657;SDS011;20865;43.312;27.152;2022-11-15T16:28:23;8.13;;;2.70;;